Terminal Aerodrome Forecast
Issued by NWS

Home | Current Version | Previous Version | Text Only | Print | Product List | Glossary On
Versions: 1 2 3 4 5 6 7 8 9 10 11 12 13 14 15 16
666
FTUS43 KDLH 190520
TAFBRD
TAF
KBRD 190520Z 1906/2006 25008KT P6SM SCT250 WS020/29035KT
     FM190900 25006KT P6SM SKC
     FM191800 20009G19KT P6SM SKC
     FM200000 18007KT P6SM FEW250
     FM200300 18007KT P6SM FEW250 WS020/21035KT=

USA.gov is the U.S. government's official web portal to all federal, state and local government web resources and services.